createdAt,value
2023-04-15T00:02:18.673Z,8.05
2023-04-15T00:04:48.009Z,7.93
2023-04-15T00:07:16.439Z,9.32
2023-04-15T00:09:44.790Z,9.10
2023-04-15T00:12:12.976Z,8.48
2023-04-15T00:14:40.716Z,7.57
2023-04-15T00:17:08.638Z,6.80
2023-04-15T00:19:36.917Z,9.05
2023-04-15T00:22:04.699Z,8.98
2023-04-15T00:24:32.757Z,7.78
2023-04-15T00:27:00.493Z,7.35
2023-04-15T00:29:28.518Z,8.02
2023-04-15T00:31:57.103Z,6.53
2023-04-15T00:34:24.773Z,7.20
2023-04-15T00:36:52.688Z,7.50
2023-04-15T00:39:21.070Z,6.40
2023-04-15T00:41:50.038Z,7.72
2023-04-15T00:44:18.933Z,8.65
2023-04-15T00:46:49.037Z,7.47
2023-04-15T00:49:18.442Z,6.97
2023-04-15T00:51:46.225Z,6.05
2023-04-15T00:54:14.222Z,8.65
2023-04-15T00:56:43.002Z,7.50
2023-04-15T00:59:11.031Z,8.02
2023-04-15T01:01:38.869Z,7.13
2023-04-15T01:04:07.245Z,9.05
2023-04-15T01:06:35.179Z,9.38
2023-04-15T01:09:03.511Z,6.90
2023-04-15T01:11:36.023Z,8.05
2023-04-15T01:14:04.525Z,8.70
2023-04-15T01:16:32.369Z,7.78
2023-04-15T01:19:01.328Z,7.57
2023-04-15T01:21:29.952Z,7.18
2023-04-15T01:23:59.031Z,7.28
2023-04-15T01:26:27.396Z,7.20
2023-04-15T01:28:56.436Z,7.35
2023-04-15T01:31:25.125Z,9.68
2023-04-15T01:33:52.925Z,8.25
2023-04-15T01:36:20.896Z,9.43
2023-04-15T01:38:48.842Z,9.05
2023-04-15T01:41:16.519Z,10.02
2023-04-15T01:43:45.776Z,11.10
2023-04-15T01:46:13.504Z,7.72
2023-04-15T01:48:41.259Z,9.55
2023-04-15T01:51:09.046Z,9.05
2023-04-15T01:53:37.368Z,9.45
2023-04-15T01:56:05.574Z,11.02
2023-04-15T01:58:33.518Z,9.05
2023-04-15T02:01:02.496Z,7.50
2023-04-15T02:03:33.057Z,8.10
2023-04-15T02:06:00.860Z,11.02
2023-04-15T02:08:30.058Z,9.80
2023-04-15T02:10:58.136Z,7.65
2023-04-15T02:13:26.271Z,9.60
2023-04-15T02:15:55.746Z,11.90
2023-04-15T02:18:23.598Z,10.00
2023-04-15T02:20:52.925Z,9.63
2023-04-15T02:23:20.558Z,13.05
2023-04-15T02:25:53.355Z,13.13
2023-04-15T02:28:22.370Z,12.80
2023-04-15T02:30:53.744Z,10.60
2023-04-15T02:33:22.062Z,11.80
2023-04-15T02:35:49.705Z,11.50
2023-04-15T02:38:18.048Z,11.55
2023-04-15T02:40:46.210Z,11.38
2023-04-15T02:43:14.098Z,12.23
2023-04-15T02:45:43.547Z,11.75
2023-04-15T02:48:11.735Z,12.05
2023-04-15T02:50:40.769Z,11.77
2023-04-15T02:53:10.555Z,11.27
2023-04-15T02:55:38.415Z,10.45
2023-04-15T02:58:06.110Z,10.82
2023-04-15T03:00:33.933Z,11.35
2023-04-15T03:03:06.598Z,11.50
2023-04-15T03:05:34.845Z,13.85
2023-04-15T03:08:05.177Z,12.63
2023-04-15T03:10:32.799Z,14.43
2023-04-15T03:13:02.621Z,13.45
2023-04-15T03:15:30.462Z,15.15
2023-04-15T03:17:58.204Z,15.18
2023-04-15T03:20:25.914Z,16.33
2023-04-15T03:22:53.597Z,18.30
2023-04-15T03:25:23.719Z,18.08
2023-04-15T03:27:51.405Z,15.75
2023-04-15T03:30:19.148Z,17.58
2023-04-15T03:32:47.323Z,16.83
2023-04-15T03:35:15.891Z,20.20
2023-04-15T03:37:43.591Z,15.93
2023-04-15T03:40:12.152Z,18.27
2023-04-15T03:42:39.814Z,21.85
2023-04-15T03:45:08.166Z,16.60
2023-04-15T03:47:36.040Z,19.77
2023-04-15T03:50:04.408Z,22.40
2023-04-15T03:52:32.025Z,20.02
2023-04-15T03:54:59.781Z,19.85
2023-04-15T03:57:27.534Z,19.48
2023-04-15T03:59:55.373Z,20.15
2023-04-15T04:02:23.705Z,17.73
2023-04-15T04:04:51.971Z,23.38
2023-04-15T04:07:19.732Z,18.40
2023-04-15T04:09:47.575Z,23.15
2023-04-15T04:12:15.275Z,20.63
2023-04-15T04:14:43.025Z,25.67
2023-04-15T04:17:10.822Z,26.85
2023-04-15T04:19:38.444Z,23.38
2023-04-15T04:22:06.604Z,25.75
2023-04-15T04:24:34.401Z,23.58
2023-04-15T04:27:02.240Z,25.35
2023-04-15T04:29:30.048Z,30.75
2023-04-15T04:31:57.816Z,30.63
2023-04-15T04:34:25.779Z,28.50
2023-04-15T04:36:53.742Z,34.63
2023-04-15T04:39:21.428Z,33.00
2023-04-15T04:41:49.919Z,36.03
2023-04-15T04:44:17.575Z,38.55
2023-04-15T04:46:45.425Z,34.90
2023-04-15T04:49:13.096Z,35.95
2023-04-15T04:51:40.767Z,38.60
2023-04-15T04:54:08.744Z,38.20
2023-04-15T04:56:36.395Z,39.53
2023-04-15T04:59:04.005Z,36.00
2023-04-15T05:01:31.721Z,43.25
2023-04-15T05:04:00.019Z,37.97
2023-04-15T05:06:30.588Z,36.60
2023-04-15T05:08:58.327Z,39.25
2023-04-15T05:11:26.186Z,44.38
2023-04-15T05:13:53.811Z,43.20
2023-04-15T05:16:22.115Z,38.90
2023-04-15T05:18:49.891Z,38.65
2023-04-15T05:21:17.613Z,37.65
2023-04-15T05:23:45.292Z,40.67
2023-04-15T05:26:13.009Z,40.03
2023-04-15T05:28:40.727Z,37.20
2023-04-15T05:31:08.772Z,41.50
2023-04-15T05:33:37.201Z,40.78
2023-04-15T05:36:05.038Z,38.13
2023-04-15T05:38:32.722Z,44.13
2023-04-15T05:41:00.647Z,38.83
2023-04-15T05:43:28.457Z,44.60
2023-04-15T05:45:56.632Z,50.10
2023-04-15T05:48:24.253Z,46.00
2023-04-15T05:50:51.942Z,48.08
2023-04-15T05:53:19.599Z,41.97
2023-04-15T05:55:47.274Z,44.92
2023-04-15T05:58:14.926Z,50.53
2023-04-15T06:00:42.694Z,41.30
2023-04-15T06:03:11.838Z,46.05
2023-04-15T06:05:40.688Z,46.83
2023-04-15T06:08:08.409Z,43.13
2023-04-15T06:10:36.992Z,40.80
2023-04-15T06:13:04.944Z,43.83
2023-04-15T06:15:32.654Z,38.92
2023-04-15T06:18:00.422Z,43.13
2023-04-15T06:20:28.264Z,39.13
2023-04-15T06:22:56.386Z,40.25
2023-04-15T06:25:24.158Z,35.38
2023-04-15T06:27:51.907Z,37.80
2023-04-15T06:30:19.665Z,39.90
2023-04-15T06:32:47.521Z,39.90
2023-04-15T06:35:16.023Z,39.42
2023-04-15T06:37:43.715Z,36.67
2023-04-15T06:40:11.931Z,33.00
2023-04-15T06:42:39.664Z,39.92
2023-04-15T06:45:08.768Z,33.92
2023-04-15T06:47:36.556Z,31.98
2023-04-15T06:50:04.787Z,32.75
2023-04-15T06:52:32.549Z,28.90
2023-04-15T06:55:02.025Z,29.95
2023-04-15T06:57:29.737Z,31.25
2023-04-15T06:59:57.482Z,28.00
2023-04-15T07:02:25.297Z,28.67
2023-04-15T07:04:53.064Z,24.52
2023-04-15T07:07:20.782Z,20.95
2023-04-15T07:09:48.557Z,25.73
2023-04-15T07:12:16.285Z,21.58
2023-04-15T07:14:43.903Z,23.48
2023-04-15T07:17:12.335Z,25.08
2023-04-15T07:19:40.013Z,22.20
2023-04-15T07:22:07.916Z,17.17
2023-04-15T07:24:35.676Z,17.73
2023-04-15T07:27:04.272Z,15.25
2023-04-15T07:29:32.194Z,15.65
2023-04-15T07:31:59.875Z,14.80
2023-04-15T07:34:30.647Z,10.85
2023-04-15T07:36:59.081Z,10.73
2023-04-15T07:39:27.162Z,14.80
2023-04-15T07:41:54.866Z,20.65
2023-04-15T07:44:22.504Z,20.13
2023-04-15T07:46:50.234Z,16.73
2023-04-15T07:49:19.404Z,18.80
2023-04-15T07:51:47.481Z,19.83
2023-04-15T07:54:15.851Z,20.33
2023-04-15T07:56:43.563Z,19.33
2023-04-15T07:59:11.662Z,20.73
2023-04-15T08:01:39.378Z,24.13
2023-04-15T08:04:07.251Z,24.65
2023-04-15T08:06:35.121Z,22.77
2023-04-15T08:09:03.071Z,19.42
2023-04-15T08:11:31.564Z,21.88
2023-04-15T08:13:59.272Z,24.48
2023-04-15T08:16:30.519Z,20.45
2023-04-15T08:18:58.644Z,17.27
2023-04-15T08:21:27.736Z,19.15
2023-04-15T08:23:55.472Z,18.88
2023-04-15T08:26:23.413Z,22.33
2023-04-15T08:28:51.637Z,19.27
2023-04-15T08:31:20.093Z,21.17
2023-04-15T08:33:47.899Z,21.33
2023-04-15T08:36:15.592Z,19.48
2023-04-15T08:38:44.866Z,19.40
2023-04-15T08:41:25.386Z,17.70
2023-04-15T08:44:04.339Z,24.30
2023-04-15T08:46:36.657Z,21.73
2023-04-15T08:49:05.723Z,16.60
2023-04-15T08:51:33.989Z,17.48
2023-04-15T08:54:02.845Z,20.55
2023-04-15T08:56:35.975Z,21.85
2023-04-15T08:59:03.962Z,20.15
2023-04-15T09:01:33.044Z,19.77
2023-04-15T09:04:03.852Z,16.55
2023-04-15T09:06:31.960Z,20.85
2023-04-15T09:08:59.949Z,17.40
2023-04-15T09:11:27.895Z,16.70
2023-04-15T09:13:56.727Z,14.85
2023-04-15T09:16:24.657Z,15.10
2023-04-15T09:18:53.809Z,14.90
2023-04-15T09:21:23.588Z,18.95
2023-04-15T09:23:58.276Z,20.25
2023-04-15T09:26:38.569Z,13.67
2023-04-15T09:29:13.497Z,19.33
2023-04-15T09:31:42.896Z,17.70
2023-04-15T09:34:10.775Z,14.75
2023-04-15T09:36:49.760Z,18.17
2023-04-15T09:39:18.805Z,14.75
2023-04-15T09:41:46.722Z,15.48
2023-04-15T09:44:25.280Z,14.13
2023-04-15T09:46:53.130Z,15.55
2023-04-15T09:49:21.009Z,16.35
2023-04-15T09:52:01.670Z,15.40
2023-04-15T09:54:38.185Z,13.30
2023-04-15T09:57:10.439Z,12.55
2023-04-15T09:59:38.277Z,13.02
2023-04-15T10:02:07.505Z,13.70
2023-04-15T10:04:42.145Z,10.70
2023-04-15T10:07:10.987Z,9.80
2023-04-15T10:09:39.606Z,13.48
2023-04-15T10:12:07.503Z,11.27
2023-04-15T10:14:38.838Z,10.57
2023-04-15T10:17:13.479Z,11.50
2023-04-15T10:19:42.467Z,12.80
2023-04-15T10:22:10.467Z,16.40
2023-04-15T10:24:40.307Z,11.93
2023-04-15T10:27:09.050Z,11.65
2023-04-15T10:29:37.648Z,16.92
2023-04-15T10:32:05.983Z,8.95
2023-04-15T10:34:34.557Z,12.68
2023-04-15T10:37:06.177Z,9.70
2023-04-15T10:39:36.300Z,13.38
2023-04-15T10:42:16.582Z,9.93
2023-04-15T10:44:49.351Z,11.00
2023-04-15T10:47:20.480Z,8.00
2023-04-15T10:49:51.767Z,8.43
2023-04-15T10:52:24.982Z,6.43
2023-04-15T10:55:03.739Z,8.70
2023-04-15T10:57:42.370Z,6.78
2023-04-15T11:00:18.657Z,5.35
2023-04-15T11:02:58.574Z,5.60
2023-04-15T11:05:41.467Z,5.22
2023-04-15T11:08:11.024Z,7.18
2023-04-15T11:10:38.717Z,6.10
2023-04-15T11:13:17.390Z,9.98
2023-04-15T11:15:47.169Z,4.93
2023-04-15T11:18:30.784Z,8.07
2023-04-15T11:21:04.646Z,5.22
2023-04-15T11:23:41.246Z,4.53
2023-04-15T11:26:12.405Z,7.65
2023-04-15T11:28:45.830Z,6.78
2023-04-15T11:31:19.920Z,6.68
2023-04-15T11:33:59.837Z,4.47
2023-04-15T11:36:31.817Z,9.57
2023-04-15T11:39:00.612Z,8.02
2023-04-15T11:41:28.378Z,6.95
2023-04-15T11:43:56.086Z,6.45
2023-04-15T11:46:32.589Z,8.38
2023-04-15T11:49:00.389Z,8.35
2023-04-15T11:51:34.372Z,7.13
2023-04-15T11:54:02.888Z,6.70
2023-04-15T11:56:32.095Z,4.90
2023-04-15T11:59:00.282Z,4.13
2023-04-15T12:01:36.972Z,5.78
2023-04-15T12:04:13.715Z,6.93
2023-04-15T12:06:41.714Z,6.05
2023-04-15T12:09:13.231Z,5.22
2023-04-15T12:11:45.286Z,6.93
2023-04-15T12:14:15.943Z,7.40
2023-04-15T12:16:49.475Z,4.65
2023-04-15T12:19:30.128Z,6.95
2023-04-15T12:22:13.151Z,6.72
2023-04-15T12:24:42.406Z,6.32
2023-04-15T12:27:14.744Z,5.97
2023-04-15T12:29:43.358Z,5.63
2023-04-15T12:32:16.625Z,7.15
2023-04-15T12:34:52.284Z,7.32
2023-04-15T12:39:49.952Z,5.90
2023-04-15T12:42:18.731Z,7.82
2023-04-15T12:44:47.082Z,8.25
2023-04-15T12:47:15.386Z,9.80
2023-04-15T12:49:43.237Z,9.75
2023-04-15T12:52:10.989Z,6.55
2023-04-15T12:54:39.657Z,8.50
2023-04-15T12:57:07.858Z,5.18
2023-04-15T12:59:36.556Z,6.40
2023-04-15T13:02:04.717Z,12.32
2023-04-15T13:04:32.630Z,6.05
2023-04-15T13:07:01.576Z,10.35
2023-04-15T13:09:29.233Z,16.08
2023-04-15T13:11:57.723Z,13.77
2023-04-15T13:14:25.975Z,16.85
2023-04-15T13:16:53.980Z,12.73
2023-04-15T13:19:21.633Z,10.68
2023-04-15T13:21:49.288Z,11.43
2023-04-15T13:24:17.655Z,9.13
2023-04-15T13:26:45.368Z,11.18
2023-04-15T13:29:14.148Z,11.75
2023-04-15T13:31:41.853Z,12.63
2023-04-15T13:34:09.595Z,11.95
2023-04-15T13:36:37.238Z,11.52
2023-04-15T13:39:05.573Z,9.15
2023-04-15T13:41:33.215Z,11.20
2023-04-15T13:44:01.194Z,11.80
2023-04-15T13:46:28.976Z,13.18
2023-04-15T13:48:56.772Z,11.00
2023-04-15T13:51:24.403Z,10.90
2023-04-15T13:53:52.196Z,11.35
2023-04-15T13:56:19.908Z,12.43
2023-04-15T13:58:47.785Z,11.38
2023-04-15T14:01:15.530Z,12.18
2023-04-15T14:03:43.637Z,9.05
2023-04-15T14:06:11.428Z,7.57
2023-04-15T14:08:39.456Z,10.80
2023-04-15T14:11:07.198Z,11.13
2023-04-15T14:13:34.913Z,9.27
2023-04-15T14:16:02.723Z,9.48
2023-04-15T14:18:30.735Z,6.82
2023-04-15T14:20:58.448Z,6.13
2023-04-15T14:23:26.320Z,8.48
2023-04-15T14:25:53.968Z,5.82
2023-04-15T14:28:21.731Z,5.20
2023-04-15T14:30:49.384Z,7.45
2023-04-15T14:33:17.281Z,8.23
2023-04-15T14:35:45.019Z,7.72
2023-04-15T14:38:12.768Z,7.22
2023-04-15T14:40:41.753Z,6.85
2023-04-15T14:43:09.524Z,5.43
2023-04-15T14:45:40.601Z,7.68
2023-04-15T14:48:12.757Z,5.63
2023-04-15T14:50:40.865Z,3.85
2023-04-15T14:53:08.617Z,5.43
2023-04-15T14:55:36.328Z,5.05
2023-04-15T14:58:04.434Z,2.72
2023-04-15T15:00:32.181Z,3.60
2023-04-15T15:03:00.193Z,5.07
2023-04-15T15:05:28.088Z,3.20
2023-04-15T15:07:55.783Z,4.55
2023-04-15T15:10:33.222Z,5.03
2023-04-15T15:13:12.019Z,4.00
2023-04-15T15:15:40.042Z,5.15
2023-04-15T15:18:07.972Z,8.43
2023-04-15T15:20:36.108Z,5.22
2023-04-15T15:23:03.866Z,8.55
2023-04-15T15:25:31.580Z,10.05
2023-04-15T15:27:59.308Z,6.75
2023-04-15T15:30:27.119Z,10.48
2023-04-15T15:32:54.907Z,8.50
2023-04-15T15:35:23.088Z,8.27
2023-04-15T15:37:51.176Z,3.75
2023-04-15T15:40:19.243Z,6.22
2023-04-15T15:42:49.925Z,9.43
2023-04-15T15:45:17.872Z,5.07
2023-04-15T15:47:45.706Z,7.32
2023-04-15T15:50:14.538Z,3.78
2023-04-15T15:52:42.237Z,8.70
2023-04-15T15:55:10.281Z,10.65
2023-04-15T15:57:38.032Z,8.18
2023-04-15T16:00:11.871Z,13.02
2023-04-15T16:03:05.132Z,5.97
2023-04-15T16:05:28.526Z,4.03
2023-04-15T16:07:56.359Z,6.32
2023-04-15T16:10:24.079Z,3.50
2023-04-15T16:12:51.779Z,6.30
2023-04-15T16:15:19.586Z,6.45
2023-04-15T16:17:47.332Z,4.88
2023-04-15T16:20:15.045Z,5.78
2023-04-15T16:22:42.784Z,3.70
2023-04-15T16:25:10.785Z,8.80
2023-04-15T16:30:11.029Z,4.00
2023-04-15T16:32:38.893Z,4.90
2023-04-15T16:35:07.586Z,5.68
2023-04-15T16:37:36.150Z,6.10
2023-04-15T16:40:04.635Z,9.52
2023-04-15T16:42:32.406Z,6.35
2023-04-15T16:45:00.071Z,6.80
2023-04-15T16:47:27.799Z,6.82
2023-04-15T16:49:55.576Z,7.20
2023-04-15T16:52:23.243Z,11.77
2023-04-15T16:54:50.954Z,4.45
2023-04-15T16:57:18.612Z,7.25
2023-04-15T16:59:46.252Z,4.45
2023-04-15T17:02:14.291Z,6.15
2023-04-15T17:04:42.107Z,6.75
2023-04-15T17:07:10.664Z,4.60
2023-04-15T17:09:41.626Z,4.25
2023-04-15T17:12:09.369Z,8.10
2023-04-15T17:14:38.725Z,5.78
2023-04-15T17:17:06.606Z,9.65
2023-04-15T17:19:34.381Z,8.02
2023-04-15T17:22:02.339Z,13.02
2023-04-15T17:24:31.026Z,7.15
2023-04-15T17:26:58.733Z,8.77
2023-04-15T17:29:27.062Z,11.30
2023-04-15T17:31:55.403Z,7.22
2023-04-15T17:34:23.159Z,7.03
2023-04-15T17:36:51.691Z,7.95
2023-04-15T17:39:19.465Z,9.77
2023-04-15T17:41:47.275Z,5.22
2023-04-15T17:44:14.945Z,12.23
2023-04-15T17:46:42.639Z,6.90
2023-04-15T17:49:10.307Z,9.40
2023-04-15T17:51:37.968Z,8.15
2023-04-15T17:54:08.377Z,11.55
2023-04-15T17:56:36.474Z,10.52
2023-04-15T17:59:04.274Z,6.82
2023-04-15T18:01:31.970Z,10.32
2023-04-15T18:04:00.016Z,9.27
2023-04-15T18:06:27.974Z,8.57
2023-04-15T18:08:56.163Z,9.35
2023-04-15T18:11:23.973Z,7.22
2023-04-15T18:13:51.686Z,11.75
2023-04-15T18:16:19.570Z,9.80
2023-04-15T18:18:47.267Z,8.70
2023-04-15T18:21:15.052Z,8.20
2023-04-15T18:23:42.727Z,6.35
2023-04-15T18:26:10.715Z,12.70
2023-04-15T18:28:39.849Z,10.38
2023-04-15T18:31:07.569Z,7.45
2023-04-15T18:33:35.856Z,9.40
2023-04-15T18:36:03.909Z,7.63
2023-04-15T18:38:31.840Z,11.80
2023-04-15T18:40:59.606Z,11.30
2023-04-15T18:43:27.230Z,10.38
2023-04-15T18:45:55.070Z,10.70
2023-04-15T18:48:22.870Z,8.88
2023-04-15T18:50:53.969Z,9.70
2023-04-15T18:53:21.808Z,10.30
2023-04-15T18:55:49.531Z,12.30
2023-04-15T18:58:17.261Z,12.48
2023-04-15T19:00:44.966Z,11.05
2023-04-15T19:03:12.723Z,13.30
2023-04-15T19:05:40.637Z,13.52
2023-04-15T19:08:08.327Z,9.75
2023-04-15T19:10:36.056Z,12.95
2023-04-15T19:13:04.515Z,11.88
2023-04-15T19:15:32.422Z,9.77
2023-04-15T19:18:00.170Z,18.52
2023-04-15T19:20:27.938Z,17.95
2023-04-15T19:22:56.172Z,10.57
2023-04-15T19:25:23.812Z,17.73
2023-04-15T19:27:51.427Z,17.55
2023-04-15T19:30:19.532Z,12.48
2023-04-15T19:32:47.257Z,9.73
2023-04-15T19:35:15.094Z,17.83
2023-04-15T19:37:42.799Z,9.73
2023-04-15T19:40:10.938Z,21.73
2023-04-15T19:42:38.610Z,15.95
2023-04-15T19:45:06.973Z,14.73
2023-04-15T19:47:35.144Z,15.30
2023-04-15T19:50:03.091Z,15.32
2023-04-15T19:52:31.369Z,16.13
2023-04-15T19:54:59.004Z,13.70
2023-04-15T19:57:26.690Z,9.43
2023-04-15T19:59:54.372Z,10.05
2023-04-15T20:02:22.449Z,17.90
2023-04-15T20:04:50.258Z,9.70
2023-04-15T20:07:17.967Z,11.00
2023-04-15T20:09:45.744Z,14.90
2023-04-15T20:12:49.303Z,9.25
2023-04-15T20:15:01.054Z,13.63
2023-04-15T20:17:33.552Z,9.65
2023-04-15T20:20:01.392Z,13.73
2023-04-15T20:22:29.047Z,11.57
2023-04-15T20:24:56.717Z,11.27
2023-04-15T20:27:24.425Z,11.75
2023-04-15T20:29:52.055Z,11.77
2023-04-15T20:32:19.932Z,13.82
2023-04-15T20:34:47.895Z,16.80
2023-04-15T20:37:15.536Z,13.27
2023-04-15T20:39:43.222Z,16.83
2023-04-15T20:42:10.933Z,14.88
2023-04-15T20:44:39.000Z,13.35
2023-04-15T20:47:07.680Z,10.20
2023-04-15T20:49:36.924Z,14.48
2023-04-15T20:52:08.047Z,9.52
2023-04-15T20:54:35.997Z,9.00
2023-04-15T20:57:03.765Z,11.45
2023-04-15T20:59:32.806Z,9.30
2023-04-15T21:02:00.726Z,15.35
2023-04-15T21:04:28.476Z,11.32
2023-04-15T21:06:56.211Z,10.75
2023-04-15T21:09:24.675Z,11.10
2023-04-15T21:12:00.987Z,10.27
2023-04-15T21:14:29.885Z,13.85
2023-04-15T21:17:08.514Z,8.35
2023-04-15T21:19:38.227Z,14.10
2023-04-15T21:22:05.962Z,13.15
2023-04-15T21:24:34.009Z,8.82
2023-04-15T21:27:02.104Z,15.48
2023-04-15T21:29:30.112Z,7.68
2023-04-15T21:31:57.878Z,11.68
2023-04-15T21:34:25.629Z,9.23
2023-04-15T21:36:53.349Z,9.82
2023-04-15T21:39:21.530Z,11.15
2023-04-15T21:41:49.341Z,17.90
2023-04-15T21:44:17.091Z,10.15
2023-04-15T21:46:45.657Z,11.02
2023-04-15T21:49:14.321Z,11.07
2023-04-15T21:51:42.203Z,9.63
2023-04-15T21:54:10.000Z,18.48
2023-04-15T21:56:37.976Z,10.57
2023-04-15T21:59:05.834Z,11.38
2023-04-15T22:01:33.780Z,13.63
2023-04-15T22:04:01.628Z,12.27
2023-04-15T22:06:29.432Z,13.63
2023-04-15T22:08:57.936Z,14.80
2023-04-15T22:11:27.491Z,12.50
2023-04-15T22:13:57.353Z,18.05
2023-04-15T22:16:26.542Z,12.55
2023-04-15T22:18:55.751Z,15.48
2023-04-15T22:21:23.944Z,11.80
2023-04-15T22:23:52.785Z,11.65
2023-04-15T22:26:20.474Z,16.65
2023-04-15T22:28:48.292Z,15.05
2023-04-15T22:31:16.055Z,13.65
2023-04-15T22:33:43.716Z,13.98
2023-04-15T22:36:11.607Z,13.85
2023-04-15T22:38:39.212Z,12.48
2023-04-15T22:41:06.975Z,18.27
2023-04-15T22:43:34.606Z,12.88
2023-04-15T22:46:02.254Z,9.80
2023-04-15T22:48:29.889Z,16.70
2023-04-15T22:50:57.651Z,12.13
2023-04-15T22:53:25.376Z,14.48
2023-04-15T22:55:54.026Z,14.38
2023-04-15T22:58:21.788Z,10.80
2023-04-15T23:00:50.231Z,12.30
2023-04-15T23:03:18.001Z,10.93
2023-04-15T23:05:46.356Z,17.05
2023-04-15T23:08:14.104Z,15.05
2023-04-15T23:10:41.845Z,11.05
2023-04-15T23:13:09.553Z,10.48
2023-04-15T23:15:37.165Z,16.80
2023-04-15T23:18:05.178Z,10.73
2023-04-15T23:20:33.353Z,12.50
2023-04-15T23:23:01.081Z,19.85
2023-04-15T23:25:28.689Z,10.95
2023-04-15T23:27:56.312Z,18.85
2023-04-15T23:30:23.979Z,13.43
2023-04-15T23:32:51.764Z,11.15
2023-04-15T23:35:19.683Z,14.27
2023-04-15T23:37:47.337Z,12.20
2023-04-15T23:40:15.706Z,11.60
2023-04-15T23:42:43.582Z,13.50
2023-04-15T23:45:11.962Z,11.30
2023-04-15T23:47:40.291Z,9.80
2023-04-15T23:50:09.014Z,11.25
2023-04-15T23:52:37.011Z,12.48
2023-04-15T23:55:05.370Z,19.60
2023-04-15T23:57:33.088Z,12.60
